Data for 02/16/2014

Time Sea-Level Adjusted Pressure Absolute Pressure Temperature Relative Humidity Dew Point   
(mb) (inHg) (mb) (inHg) (C) (F) (%) (C) (F)
00:05 1007 29.74 836 24.69 6.4 43.5 51 -3 26.7
00:10 1007 29.74 836 24.69 6.8 44.2 49 -3.3 26
00:15 1007 29.74 836 24.69 7.1 44.8 52 -2 28.3
00:20 1007 29.74 836 24.69 6.5 43.6 52 -2.6 27.3
00:25 1007 29.74 836 24.69 6.2 43.2 50 -3.3 26.1
00:30 1007 29.74 836 24.69 6.9 44.4 48 -3.3 26.1
00:35 1007 29.74 836 24.69 6.9 44.5 47 -3.5 25.6
00:40 1006 29.71 836 24.69 7.4 45.4 45 -3.7 25.4
00:45 1006 29.71 836 24.69 7.7 45.8 47 -3 26.7
00:50 1006 29.71 836 24.69 7.9 46.2 43 -3.9 25
00:55 1006 29.71 835 24.66 8.1 46.7 44 -3.5 25.7
01:00 1006 29.71 835 24.66 7.9 46.2 46 -2.9 26.7
01:05 1006 29.71 835 24.66 6.9 44.4 51 -2.7 27.2
01:10 1006 29.71 835 24.66 6.9 44.4 46 -3.8 25.1
01:15 1006 29.71 835 24.66 7.7 45.9 47 -2.9 26.8
01:20 1006 29.71 835 24.66 7.1 44.7 49 -2.8 27
01:25 1006 29.71 835 24.66 6.6 43.9 50 -3 26.6
01:30 1006 29.71 835 24.66 6.7 44.1 45 -4.3 24.2
01:35 1006 29.71 835 24.66 7.8 46 45 -3.5 25.7
01:40 1006 29.71 835 24.66 8.6 47.4 40 -4.2 24.4
01:45 1006 29.71 835 24.66 9.1 48.4 39 -4.2 24.5
01:50 1006 29.71 835 24.66 9.3 48.8 38 -4.2 24.5
01:55 1006 29.71 835 24.66 9.6 49.2 38 -4 24.7
02:00 1006 29.71 835 24.66 9.7 49.4 37 -4.2 24.4
02:05 1005 29.68 835 24.66 9.7 49.5 38 -3.7 25.3
02:10 1005 29.68 835 24.66 9.4 49 40 -3.6 25.5
02:15 1005 29.68 835 24.66 9.3 48.7 40 -3.7 25.4
02:20 1005 29.68 834 24.63 9.2 48.6 38 -4.2 24.5
02:25 1005 29.68 834 24.63 9.5 49.1 40 -3.4 25.9
02:30 1005 29.68 834 24.63 8.8 47.8 42 -3.6 25.6
02:35 1005 29.68 834 24.63 8.8 47.8 41 -3.6 25.5
02:40 1005 29.68 834 24.63 8.6 47.5 44 -3 26.6
02:45 1005 29.68 834 24.63 8.3 47 42 -3.9 24.9
02:50 1005 29.68 834 24.63 8.9 48 41 -3.6 25.4
02:55 1005 29.68 834 24.63 9.2 48.5 40 -3.6 25.6
03:00 1005 29.68 834 24.63 9.1 48.4 41 -3.5 25.7
03:05 1005 29.68 834 24.63 8.9 48 42 -3.3 26.1
03:10 1005 29.68 834 24.63 8.7 47.7 43 -3.2 26.2
03:15 1004 29.65 834 24.63 8.5 47.2 44 -3 26.7
03:20 1004 29.65 834 24.63 8.2 46.8 43 -3.5 25.6
03:25 1004 29.65 834 24.63 8.4 47.1 42 -3.8 25.1
03:30 1004 29.65 834 24.63 8.6 47.5 42 -3.5 25.6
03:35 1004 29.65 833 24.6 8.4 47.1 44 -3.1 26.5
03:40 1004 29.65 833 24.6 8.2 46.8 43 -3.5 25.7
03:45 1004 29.65 833 24.6 8.1 46.5 45 -3.3 26.1
03:50 1004 29.65 833 24.6 8.1 46.5 45 -3 26.5
03:55 1004 29.65 833 24.6 8.2 46.7 45 -3.1 26.3
04:00 1004 29.65 833 24.6 8.2 46.8 45 -3 26.7
04:05 1004 29.65 833 24.6 8.1 46.6 45 -3.2 26.3
04:10 1004 29.65 833 24.6 8 46.4 45 -3.2 26.2
04:15 1004 29.65 833 24.6 7.8 46.1 46 -3.1 26.4
04:20 1004 29.65 833 24.6 8.1 46.7 43 -3.5 25.6
04:25 1004 29.65 833 24.6 8.7 47.7 42 -3.5 25.8
04:30 1004 29.65 833 24.6 8.8 47.8 43 -2.9 26.7
04:35 1004 29.65 833 24.6 8.4 47.2 43 -3.4 25.8
04:40 1004 29.65 833 24.6 9 48.3 41 -3.5 25.7
04:45 1004 29.65 833 24.6 9.3 48.7 42 -3 26.7
04:50 1004 29.65 833 24.6 9.2 48.5 41 -3.4 25.8
04:55 1003 29.62 833 24.6 9.2 48.6 42 -3.1 26.5
05:00 1004 29.65 833 24.6 8.9 48.1 42 -3.2 26.3
05:05 1003 29.62 833 24.6 8.9 48 41 -3.5 25.7
05:10 1003 29.62 833 24.6 8.9 48.1 42 -3.1 26.4
05:15 1003 29.62 832 24.57 8.4 47.2 44 -3.1 26.5
05:20 1003 29.62 832 24.57 8.1 46.6 45 -3.2 26.2
05:25 1003 29.62 832 24.57 7.8 46.1 45 -3.5 25.7
05:30 1003 29.62 832 24.57 7.8 46 44 -3.6 25.5
05:35 1003 29.62 832 24.57 8 46.3 44 -3.5 25.7
05:40 1003 29.62 832 24.57 8.1 46.5 44 -3.3 26
05:45 1003 29.62 832 24.57 7.7 45.9 46 -3.2 26.3
05:50 1003 29.62 832 24.57 7.7 45.8 45 -3.4 25.8
05:55 1003 29.62 832 24.57 7.9 46.2 45 -3.2 26.2
06:00 1003 29.62 832 24.57 7.8 46.1 46 -3.2 26.3
06:05 1003 29.62 832 24.57 7.8 46.1 47 -2.9 26.9
06:10 1003 29.62 832 24.57 7.6 45.7 47 -3 26.6
06:15 1003 29.62 832 24.57 7.6 45.6 47 -3 26.5
06:20 1003 29.62 832 24.57 7.5 45.5 47 -3 26.6
06:25 1003 29.62 832 24.57 7.3 45.2 48 -2.9 26.7
06:30 1003 29.62 832 24.57 7.4 45.3 47 -3.2 26.3
06:35 1003 29.62 832 24.57 7.6 45.6 46 -3.2 26.2
06:40 1003 29.62 832 24.57 7.7 45.8 46 -3.2 26.2
06:45 1003 29.62 832 24.57 7.7 45.9 46 -3.3 26
06:50 1003 29.62 832 24.57 7.7 45.9 45 -3.5 25.8
06:55 1003 29.62 832 24.57 7.8 46.1 45 -3.5 25.8
07:00 1003 29.62 832 24.57 7.8 46.1 46 -2.9 26.7
07:05 1003 29.62 832 24.57 7.6 45.7 46 -3.4 25.9
07:10 1003 29.62 832 24.57 7.9 46.2 44 -3.6 25.6
07:15 1003 29.62 832 24.57 8.2 46.8 42 -3.8 25.1
07:20 1003 29.62 832 24.57 8.5 47.3 42 -3.6 25.5
07:25 1003 29.62 832 24.57 8.5 47.2 42 -3.8 25.2
07:30 1002 29.59 832 24.57 8.6 47.6 41 -3.8 25.2
07:35 1002 29.59 832 24.57 8.7 47.7 42 -3.6 25.5
07:40 1002 29.59 832 24.57 8.7 47.6 42 -3.5 25.6
07:45 1002 29.59 832 24.57 8.5 47.3 42 -3.5 25.6
07:50 1002 29.59 832 24.57 8.4 47.1 43 -3.4 25.9
07:55 1002 29.59 831 24.54 8.3 47 43 -3.4 25.9
08:00 1002 29.59 831 24.54 8.3 46.9 43 -3.4 25.8
08:05 1002 29.59 831 24.54 8.2 46.8 44 -3.2 26.2
08:10 1002 29.59 831 24.54 8.1 46.5 45 -3.3 26.1
08:15 1002 29.59 831 24.54 8 46.3 45 -3.2 26.2
08:20 1002 29.59 831 24.54 7.8 46 46 -3.1 26.4
08:25 1002 29.59 831 24.54 7.5 45.4 48 -2.9 26.8
08:30 1002 29.59 831 24.54 7.2 44.9 49 -2.9 26.8
08:35 1002 29.59 831 24.54 6.9 44.5 49 -3 26.6
08:40 1002 29.59 831 24.54 6.9 44.5 47 -3.6 25.5
08:45 1002 29.59 831 24.54 7.2 44.9 47 -3.5 25.7
08:50 1002 29.59 831 24.54 7.2 44.9 48 -3.1 26.3
08:55 1002 29.59 831 24.54 7 44.6 46 -3.7 25.3
09:00 1002 29.59 831 24.54 7.3 45.1 46 -3.4 25.8
09:05 1002 29.59 831 24.54 7.3 45.1 47 -3.2 26.3
09:10 1002 29.59 831 24.54 7.2 44.9 46 -3.6 25.6
09:15 1002 29.59 831 24.54 7.4 45.4 45 -3.6 25.5
09:20 1002 29.59 831 24.54 7.4 45.4 49 -2.7 27.2
09:25 1002 29.59 831 24.54 6.9 44.4 50 -2.7 27.1
09:30 1002 29.59 831 24.54 6.7 44 50 -3 26.5
09:35 1002 29.59 831 24.54 6.9 44.3 48 -3.3 26.1
09:40 1002 29.59 832 24.57 6.8 44.2 50 -2.8 26.9
09:45 1003 29.62 832 24.57 6.7 44.1 50 -3 26.6
09:50 1003 29.62 832 24.57 6.7 44.1 51 -2.8 26.9
09:55 1003 29.62 832 24.57 5.8 42.5 60 -1.4 29.4
10:00 1003 29.62 833 24.6 4.2 39.5 67 -1.5 29.4
10:05 1004 29.65 833 24.6 3.3 37.9 75 -0.8 30.5
10:10 1004 29.65 833 24.6 2.5 36.5 82 -0.3 31.4
10:15 1004 29.65 833 24.6 1.6 34.9 87 -0.3 31.5
10:20 1005 29.68 834 24.63 0.6 33 89 -1 30.2
10:25 1005 29.68 834 24.63 -0.3 31.4 92 -1.5 29.3
10:30 1005 29.68 834 24.63 -0.7 30.7 93 -1.7 28.9
10:35 1005 29.68 834 24.63 -0.9 30.4 94 -1.7 28.9
10:40 1005 29.68 835 24.66 -1 30.2 95 -1.7 28.9
10:45 1006 29.71 835 24.66 -1.1 30.1 95 -1.7 28.9
10:50 1006 29.71 835 24.66 -1 30.1 95 -1.7 29
10:55 1006 29.71 835 24.66 -1.1 30.1 96 -1.7 28.9
11:00 1006 29.71 836 24.69 -1.1 30.1 96 -1.7 29
11:05 1007 29.74 836 24.69 -1 30.2 96 -1.6 29.2
11:10 1007 29.74 836 24.69 -0.9 30.3 96 -1.5 29.2
11:15 1007 29.74 836 24.69 -0.9 30.4 96 -1.5 29.3
11:20 1007 29.74 836 24.69 -0.9 30.4 96 -1.5 29.3
11:25 1007 29.74 836 24.69 -0.9 30.3 96 -1.5 29.2
11:30 1007 29.74 837 24.72 -1 30.3 95 -1.6 29.1
11:35 1007 29.74 837 24.72 -1 30.2 96 -1.6 29.1
11:40 1007 29.74 837 24.72 -0.9 30.3 96 -1.5 29.3
11:45 1007 29.74 837 24.72 -0.8 30.5 95 -1.5 29.3
11:50 1007 29.74 836 24.69 -0.9 30.3 95 -1.6 29.1
11:55 1007 29.74 836 24.69 -1 30.2 95 -1.8 28.8
12:00 1007 29.74 836 24.69 -1.2 29.9 94 -2.1 28.3
12:05 1007 29.74 837 24.72 -1.2 29.8 93 -2.2 28
12:10 1007 29.74 837 24.72 -1.2 29.9 93 -2.1 28.2
12:15 1007 29.74 837 24.72 -1.2 29.9 94 -2 28.3
12:20 1007 29.74 837 24.72 -1.2 29.9 94 -2 28.3
12:25 1007 29.74 836 24.69 -1.1 30.1 93 -2.1 28.3
12:30 1007 29.74 836 24.69 -1.1 30.1 93 -2.1 28.2
12:35 1007 29.74 836 24.69 -1.2 29.9 92 -2.4 27.7
12:40 1007 29.74 837 24.72 -1.2 29.8 92 -2.4 27.6
12:45 1007 29.74 837 24.72 -1 30.2 91 -2.3 27.8
12:50 1007 29.74 837 24.72 -0.5 31.1 89 -2.1 28.2
12:55 1008 29.77 837 24.72 -0.3 31.5 88 -2.1 28.3
13:00 1008 29.77 837 24.72 -0.2 31.6 88 -1.9 28.5
13:05 1008 29.77 837 24.72 -0.1 31.9 86 -2.2 28.1
13:10 1008 29.77 837 24.72 -0.1 31.9 85 -2.2 28
13:15 1008 29.77 837 24.72 0 32 86 -2 28.4
13:20 1008 29.77 837 24.72 -0.1 31.8 86 -2.2 28.1
13:25 1008 29.77 837 24.72 -0.1 31.8 86 -2.2 28.1
13:30 1008 29.77 837 24.72 -0 32 86 -2.1 28.2
13:35 1008 29.77 837 24.72 0.4 32.7 84 -1.9 28.5
13:40 1008 29.77 837 24.72 0.7 33.2 81 -2.2 28
13:45 1008 29.77 837 24.72 0.4 32.7 82 -2.4 27.6
13:50 1008 29.77 837 24.72 0.4 32.7 82 -2.4 27.7
13:55 1008 29.77 837 24.72 0.4 32.7 80 -2.6 27.4
14:00 1008 29.77 837 24.72 0.4 32.8 81 -2.5 27.5
14:05 1008 29.77 837 24.72 0.7 33.2 79 -2.5 27.5
14:10 1008 29.77 837 24.72 1.1 33.9 77 -2.4 27.6
14:15 1008 29.77 837 24.72 1.7 35 73 -2.7 27.1
14:20 1008 29.77 837 24.72 1.7 35.1 72 -2.7 27.1
14:25 1008 29.77 838 24.75 1.6 34.9 72 -2.9 26.8
14:30 1008 29.77 838 24.75 1.6 34.9 72 -3 26.7
14:35 1008 29.77 838 24.75 1.6 34.9 72 -2.8 26.9
14:40 1009 29.8 838 24.75 1.5 34.6 71 -3.3 26.1
14:45 1009 29.8 838 24.75 1.4 34.4 70 -3.5 25.7
14:50 1009 29.8 838 24.75 1.3 34.3 71 -3.3 26
14:55 1009 29.8 838 24.75 1.4 34.6 70 -3.5 25.7
15:00 1009 29.8 838 24.75 1.3 34.3 71 -3.4 25.8
15:05 1009 29.8 838 24.75 1.1 34 73 -3.2 26.3
15:10 1009 29.8 838 24.75 1 33.9 73 -3.2 26.2
15:15 1009 29.8 838 24.75 0.9 33.7 73 -3.3 26
15:20 1009 29.8 838 24.75 1.1 34.1 68 -4.1 24.5
15:25 1009 29.8 838 24.75 2 35.5 60 -5 23
15:30 1009 29.8 838 24.75 2.6 36.7 54 -5.8 21.5
15:35 1009 29.8 839 24.78 3 37.3 49 -6.8 19.8
15:40 1010 29.83 839 24.78 3.3 37.9 40 -9.2 15.5
15:45 1010 29.83 839 24.78 3.2 37.7 41 -8.9 15.9
15:50 1010 29.83 839 24.78 3.3 38 37 -9.9 14.1
15:55 1010 29.83 839 24.78 3.2 37.7 38 -9.7 14.5
16:00 1010 29.83 839 24.78 3 37.4 35 -11 12.3
16:05 1010 29.83 839 24.78 2.8 37.1 34 -11.4 11.4
16:10 1010 29.83 839 24.78 2.7 36.9 36 -10.9 12.3
16:15 1010 29.83 839 24.78 2.7 36.9 38 -10.3 13.5
16:20 1010 29.83 839 24.78 2.7 36.9 35 -11.2 11.8
16:25 1010 29.83 839 24.78 2.5 36.6 36 -11.2 11.9
16:30 1010 29.83 839 24.78 2.6 36.6 34 -11.9 10.6
16:35 1010 29.83 839 24.78 2.4 36.4 33 -12.5 9.6
16:40 1010 29.83 839 24.78 2.4 36.3 34 -11.9 10.6
16:45 1010 29.83 840 24.81 2.3 36.2 34 -12 10.3
16:50 1011 29.85 840 24.81 2.3 36.2 34 -12 10.4
16:55 1011 29.85 840 24.81 2.4 36.4 34 -12 10.5
17:00 1011 29.85 840 24.81 2.5 36.6 34 -11.7 10.9
17:05 1011 29.85 840 24.81 2.5 36.5 34 -11.9 10.6
17:10 1011 29.85 840 24.81 2.1 35.7 34 -12.2 10.1
17:15 1011 29.85 840 24.81 2 35.6 34 -12.1 10.2
17:20 1011 29.85 840 24.81 1.7 35.1 33 -13.1 8.5
17:25 1011 29.85 840 24.81 1.6 34.9 33 -13.2 8.3
17:30 1011 29.85 841 24.83 1.5 34.7 35 -12.5 9.4
17:35 1012 29.88 841 24.83 1.7 35.1 36 -11.8 10.7
17:40 1012 29.88 841 24.83 1.9 35.5 35 -12.1 10.3
17:45 1012 29.88 841 24.83 2 35.6 31 -13.5 7.7
17:50 1012 29.88 841 24.83 2.1 35.7 31 -13.5 7.7
17:55 1012 29.88 841 24.83 2 35.5 29 -14.4 6.1
18:00 1012 29.88 841 24.83 1.9 35.4 29 -14.4 6.1
18:05 1012 29.88 841 24.83 1.7 35 30 -14.2 6.4
18:10 1012 29.88 841 24.83 1.5 34.6 31 -13.8 7.1
18:15 1012 29.88 841 24.83 1.4 34.5 32 -13.7 7.3
18:20 1012 29.88 841 24.83 1.2 34.2 32 -13.8 7.2
18:25 1012 29.88 841 24.83 1 33.8 33 -13.4 7.8
18:30 1012 29.88 841 24.83 0.8 33.5 35 -13.2 8.3
18:35 1012 29.88 841 24.83 0.7 33.2 34 -13.5 7.8
18:40 1012 29.88 841 24.83 0.5 32.8 35 -13.2 8.3
18:45 1012 29.88 841 24.83 0.2 32.4 36 -13.3 8.1
18:50 1012 29.88 842 24.86 0.2 32.3 36 -13.1 8.5
18:55 1013 29.91 842 24.86 0.1 32.2 39 -12.4 9.6
19:00 1013 29.91 842 24.86 0 32 40 -12.1 10.2
19:05 1013 29.91 842 24.86 -0.1 31.8 41 -11.9 10.6
19:10 1013 29.91 842 24.86 -0.2 31.6 43 -11.4 11.5
19:15 1013 29.91 842 24.86 -0.4 31.3 42 -11.8 10.8
19:20 1013 29.91 843 24.89 -0.3 31.5 43 -11.5 11.4
19:25 1014 29.94 843 24.89 -0.3 31.5 45 -10.9 12.4
19:30 1014 29.94 843 24.89 -0.5 31.2 45 -11 12.2
19:35 1014 29.94 844 24.92 -0.5 31.2 45 -11.1 12
19:40 1015 29.97 844 24.92 -0.5 31.2 45 -11.1 12
19:45 1015 29.97 844 24.92 -0.5 31.1 44 -11.3 11.6
19:50 1015 29.97 844 24.92 -0.6 30.9 45 -11.1 12
19:55 1015 29.97 844 24.92 -0.8 30.5 46 -11.2 11.9
20:00 1015 29.97 844 24.92 -0.9 30.4 46 -11 12.2
20:05 1015 29.97 844 24.92 -1.2 29.9 49 -10.7 12.8
20:10 1015 29.97 844 24.92 -1.5 29.3 49 -10.8 12.6
20:15 1015 29.97 844 24.92 -1.4 29.5 47 -11.3 11.7
20:20 1015 29.97 845 24.95 -1.2 29.8 44 -11.9 10.7
20:25 1015 29.97 845 24.95 -1.2 29.9 45 -11.7 10.9
20:30 1016 30 845 24.95 -1 30.2 44 -11.9 10.6
20:35 1015 29.97 845 24.95 -0.9 30.4 44 -11.8 10.7
20:40 1016 30 845 24.95 -1 30.2 43 -12.1 10.2
20:45 1016 30 845 24.95 -1.2 29.9 44 -11.9 10.6
20:50 1015 29.97 845 24.95 -1.4 29.4 43 -12.3 9.8
20:55 1016 30 845 24.95 -1.5 29.4 43 -12.4 9.7
21:00 1016 30 845 24.95 -1.7 29 45 -12 10.4
21:05 1016 30 845 24.95 -1.8 28.8 46 -11.9 10.6
21:10 1016 30 845 24.95 -2 28.5 46 -12.2 10
21:15 1015 29.97 845 24.95 -1.9 28.6 46 -11.9 10.5
21:20 1015 29.97 845 24.95 -1.8 28.8 47 -11.8 10.8
21:25 1015 29.97 845 24.95 -1.6 29 47 -11.6 11.1
21:30 1015 29.97 845 24.95 -1.5 29.3 45 -11.9 10.6
21:35 1015 29.97 845 24.95 -1.2 29.8 46 -11.5 11.3
21:40 1015 29.97 845 24.95 -1 30.2 44 -11.9 10.6
21:45 1016 30 845 24.95 -1 30.2 44 -11.7 11
21:50 1016 30 845 24.95 -1.1 30.1 42 -12.4 9.7
21:55 1016 30 845 24.95 -0.9 30.3 42 -12.4 9.7
22:00 1016 30 845 24.95 -0.9 30.4 42 -12.3 9.9
22:05 1017 30.03 846 24.98 -0.9 30.4 43 -12 10.4
22:10 1017 30.03 846 24.98 -1.1 30 44 -11.9 10.6
22:15 1017 30.03 846 24.98 -1.3 29.8 44 -12 10.3
22:20 1017 30.03 846 24.98 -1.3 29.7 44 -12.2 10.1
22:25 1017 30.03 846 24.98 -1.2 29.8 43 -12.3 9.9
22:30 1017 30.03 846 24.98 -1.1 29.9 44 -12 10.4
22:35 1017 30.03 846 24.98 -1.3 29.7 43 -12.3 9.9
22:40 1017 30.03 846 24.98 -1.2 29.8 43 -12.3 9.8
22:45 1017 30.03 846 24.98 -1.2 29.9 43 -12.2 10
22:50 1017 30.03 846 24.98 -1.3 29.7 43 -12.2 10
22:55 1017 30.03 846 24.98 -1.5 29.3 44 -12.2 10.1
23:00 1017 30.03 846 24.98 -1.4 29.4 41 -13 8.6
23:05 1017 30.03 846 24.98 -1.3 29.7 39 -13.5 7.7
23:10 1017 30.03 846 24.98 -1 30.2 38 -13.6 7.4
23:15 1017 30.03 846 24.98 -0.7 30.7 37 -13.6 7.5
23:20 1017 30.03 846 24.98 -0.7 30.8 38 -13.3 8.1
23:25 1017 30.03 846 24.98 -0.7 30.7 35 -14.4 6.1
23:30 1017 30.03 846 24.98 -0.4 31.3 36 -13.7 7.3
23:35 1017 30.03 846 24.98 -0.6 30.8 36 -13.8 7.1
23:40 1016 30 846 24.98 -0.7 30.8 38 -13.4 7.9
23:45 1016 30 846 24.98 -1 30.1 40 -13.1 8.4
23:50 1016 30 846 24.98 -1.4 29.4 39 -13.7 7.3
23:55 1016 30 846 24.98 -1.1 29.9 36 -14.3 6.2
24:00 1016 30 846 24.98 -1 30.2 39 -13.4 7.9